Terminal Aerodrome Forecast
Issued by NWS Atlanta, GA

Home | Current Version | Previous Version | Text Only | Print | Product List | Glossary On
Versions: 1 2 3 4 5 6 7 8 9 10 11 12 13 14 15 16 17 18 19 20
778
FTUS42 KFFC 270536
TAFMCN
TAF
KMCN 270536Z 2706/2806 17003KT P6SM SCT070 OVC120
     FM271000 21003KT P6SM BKN035 BKN100
     FM271500 27008KT P6SM VCSH SCT035 BKN120 PROB30 2719/2722 5SM
      -TSRA OVC025CB
     FM272200 30006KT P6SM SCT100
     FM280300 30004KT P6SM SKC=

USA.gov is the U.S. government's official web portal to all federal, state and local government web resources and services.